Time;durP1;ratioP1;P1;durP2;ratioP2;P2;SDS_P1;SDS_P2;PMS_P1;PMS_P2;Temp;Humidity;BMP_temperature;BMP_pressure;BME280_temperature;BME280_humidity;BME280_pressure;Samples;Min_cycle;Max_cycle;Signal;HPM_P1;HPM_P2
2023/08/20 00:01:06;;;;;;;9.20;5.83;;;;;;;;;;5018449;28;20204;-52
2023/08/20 00:03:33;;;;;;;8.50;5.60;;;;;;;;;;5002418;28;21196;-57
2023/08/20 00:06:02;;;;;;;14.03;7.10;;;;;;;;;;5003739;28;20472;-53
2023/08/20 00:08:29;;;;;;;10.03;6.23;;;;;;;;;;5022304;28;20270;-56
2023/08/20 00:10:56;;;;;;;10.03;5.80;;;;;;;;;;5002265;28;20605;-53
2023/08/20 00:13:25;;;;;;;11.47;6.40;;;;;;;;;;5020360;28;20188;-56
2023/08/20 00:15:52;;;;;;;11.73;5.90;;;;;;;;;;5012035;28;20214;-56
2023/08/20 00:18:19;;;;;;;10.50;6.77;;;;;;;;;;5018740;28;20224;-56
2023/08/20 00:20:47;;;;;;;10.30;5.70;;;;;;;;;;4987409;28;20215;-53
2023/08/20 00:23:14;;;;;;;9.37;6.03;;;;;;;;;;5014838;28;20200;-56
2023/08/20 00:25:42;;;;;;;12.40;6.20;;;;;;;;;;5003646;28;20200;-53
2023/08/20 00:28:09;;;;;;;11.23;5.73;;;;;;;;;;5005739;28;20911;-55
2023/08/20 00:30:37;;;;;;;15.10;6.27;;;;;;;;;;5011462;28;20200;-55
2023/08/20 00:33:05;;;;;;;11.30;5.70;;;;;;;;;;5004708;28;20239;-55
2023/08/20 00:35:32;;;;;;;9.20;5.63;;;;;;;;;;4994267;28;20263;-56
2023/08/20 00:37:59;;;;;;;13.57;6.03;;;;;;;;;;4996989;28;20233;-57
2023/08/20 00:40:28;;;;;;;11.43;6.33;;;;;;;;;;5011801;28;20614;-57
2023/08/20 00:42:55;;;;;;;12.23;6.03;;;;;;;;;;4995263;28;20205;-54
2023/08/20 00:45:23;;;;;;;11.40;6.07;;;;;;;;;;5011146;28;20205;-57
2023/08/20 00:47:52;;;;;;;10.17;5.97;;;;;;;;;;5009549;28;20212;-52
2023/08/20 00:50:20;;;;;;;8.97;5.80;;;18.20;99.90;;;;;;5008229;28;20236;-57
2023/08/20 00:52:47;;;;;;;14.10;5.67;;;18.20;99.90;;;;;;4989673;28;20212;-53
2023/08/20 00:55:14;;;;;;;10.80;6.47;;;18.30;99.90;;;;;;5007076;28;20252;-54
2023/08/20 00:57:41;;;;;;;8.57;5.43;;;18.30;99.90;;;;;;4994241;28;20298;-53
2023/08/20 01:00:11;;;;;;;9.90;6.70;;;18.20;99.90;;;;;;5008765;28;20211;-54
2023/08/20 01:02:39;;;;;;;7.00;5.20;;;18.10;99.90;;;;;;5018123;28;20251;-53
2023/08/20 01:05:10;;;;;;;12.07;6.50;;;17.90;99.90;;;;;;5019736;28;20279;-57
2023/08/20 01:07:49;;;;;;;9.13;5.47;;;17.90;99.90;;;;;;5003678;28;20231;-56
2023/08/20 01:10:31;;;;;;;9.30;5.70;;;17.80;99.90;;;;;;5009927;28;20222;-58
2023/08/20 01:12:58;;;;;;;13.17;5.80;;;17.80;99.90;;;;;;5005404;28;20188;-54
2023/08/20 01:15:25;;;;;;;17.80;6.03;;;17.70;99.90;;;;;;5008230;28;20192;-58
2023/08/20 01:17:52;;;;;;;10.50;5.77;;;17.70;99.90;;;;;;5014330;28;20212;-53
2023/08/20 01:20:23;;;;;;;9.03;6.37;;;17.60;99.90;;;;;;5016308;28;20201;-56
2023/08/20 01:23:21;;;;;;;8.20;5.50;;;17.60;99.90;;;;;;4997281;28;20208;-54
2023/08/20 01:26:05;;;;;;;8.13;6.00;;;17.50;99.90;;;;;;4979097;28;20716;-56
2023/08/20 01:28:34;;;;;;;10.67;6.77;;;17.40;99.90;;;;;;5008852;28;20216;-58
2023/08/20 01:31:02;;;;;;;10.13;6.03;;;17.50;99.90;;;;;;4992757;28;20209;-58
2023/08/20 01:33:29;;;;;;;14.10;5.73;;;17.50;99.90;;;;;;5010201;28;20288;-55
2023/08/20 01:35:58;;;;;;;11.67;6.10;;;17.50;99.90;;;;;;5000320;28;20274;-59
2023/08/20 01:38:25;;;;;;;11.57;6.13;;;17.40;99.90;;;;;;4994290;28;20223;-57
2023/08/20 01:40:52;;;;;;;12.50;5.83;;;17.30;99.90;;;;;;5008000;28;20192;-55
2023/08/20 01:43:19;;;;;;;7.40;5.87;;;17.20;99.90;;;;;;5008769;28;20614;-58
2023/08/20 01:45:48;;;;;;;7.47;5.23;;;;;;;;;;4998133;28;20200;-56
2023/08/20 01:48:15;;;;;;;10.40;6.00;;;17.20;99.90;;;;;;4995889;28;20206;-58
2023/08/20 01:50:42;;;;;;;6.90;5.40;;;17.10;99.90;;;;;;5005909;28;20307;-54
2023/08/20 01:53:09;;;;;;;11.67;5.97;;;17.00;99.90;;;;;;5008777;23;21787;-84
2023/08/20 01:55:36;;;;;;;7.03;5.60;;;17.00;99.90;;;;;;5045520;22;20203;-57
2023/08/20 01:58:03;;;;;;;10.57;5.90;;;17.00;99.90;;;;;;5036677;28;20211;-57
2023/08/20 02:00:30;;;;;;;10.83;5.70;;;17.00;99.90;;;;;;5023493;28;20673;-54
2023/08/20 02:03:00;;;;;;;21.03;8.77;;;17.00;99.90;;;;;;5036819;28;20195;-57
2023/08/20 02:05:26;;;;;;;10.10;6.03;;;17.00;99.90;;;;;;5036692;28;20195;-52
2023/08/20 02:07:54;;;;;;;13.63;6.80;;;17.00;99.90;;;;;;5018371;28;20196;-53
2023/08/20 02:10:21;;;;;;;8.87;6.47;;;17.00;99.90;;;;;;5017781;28;20208;-53
2023/08/20 02:12:48;;;;;;;22.17;7.47;;;16.90;99.90;;;;;;5032766;28;20231;-53
2023/08/20 02:15:17;;;;;;;14.07;6.63;;;16.90;99.90;;;;;;5026199;28;20231;-57
2023/08/20 02:17:43;;;;;;;10.57;6.90;;;16.80;99.90;;;;;;5027375;28;20211;-51
2023/08/20 02:20:12;;;;;;;14.97;7.17;;;16.80;99.90;;;;;;5033621;28;20188;-54
2023/08/20 02:22:39;;;;;;;15.80;6.40;;;16.90;99.90;;;;;;5035489;28;20635;-54
2023/08/20 02:25:06;;;;;;;19.00;7.90;;;16.80;99.90;;;;;;5011507;28;20219;-54
2023/08/20 02:27:33;;;;;;;12.80;7.13;;;16.80;99.90;;;;;;5031957;28;20270;-56
2023/08/20 02:30:00;;;;;;;12.10;6.80;;;16.70;99.90;;;;;;5027996;28;20249;-55
2023/08/20 02:32:27;;;;;;;17.57;7.87;;;16.70;99.90;;;;;;5017205;28;20228;-56
2023/08/20 02:34:54;;;;;;;18.60;7.30;;;16.70;99.90;;;;;;5027977;28;20203;-51
2023/08/20 02:37:22;;;;;;;9.27;6.60;;;16.60;99.90;;;;;;5025868;28;20229;-53
2023/08/20 02:39:49;;;;;;;10.00;6.60;;;16.60;99.90;;;;;;5016978;28;20195;-51
2023/08/20 02:42:16;;;;;;;15.40;7.30;;;16.60;99.90;;;;;;5021047;28;20224;-56
2023/08/20 02:44:42;;;;;;;18.50;7.40;;;16.50;99.90;;;;;;5031418;28;20203;-51
2023/08/20 02:47:10;;;;;;;11.37;7.00;;;16.50;99.90;;;;;;5022707;28;20193;-56
2023/08/20 02:49:37;;;;;;;15.80;7.87;;;16.60;99.90;;;;;;5034653;28;20233;-52
2023/08/20 02:52:04;;;;;;;18.60;8.50;;;16.60;99.90;;;;;;5033172;28;20211;-48
2023/08/20 02:54:32;;;;;;;22.57;8.47;;;16.50;99.90;;;;;;5036210;28;20664;-51
2023/08/20 02:57:00;;;;;;;20.80;9.33;;;16.60;99.90;;;;;;5013144;28;20210;-51
2023/08/20 02:59:27;;;;;;;28.37;10.43;;;16.50;99.90;;;;;;5043029;28;20234;-48
2023/08/20 03:01:54;;;;;;;19.00;9.20;;;16.50;99.90;;;;;;5024475;28;20231;-59
2023/08/20 03:04:21;;;;;;;13.57;7.37;;;16.40;99.90;;;;;;5037135;28;20576;-49
2023/08/20 03:06:47;;;;;;;13.50;9.10;;;16.50;99.90;;;;;;5041588;28;20191;-58
2023/08/20 03:09:14;;;;;;;20.30;8.50;;;16.60;99.90;;;;;;5025669;28;20196;-53
2023/08/20 03:11:43;;;;;;;14.60;8.43;;;16.50;99.90;;;;;;5013196;28;20277;-57
2023/08/20 03:14:09;;;;;;;21.57;8.20;;;16.40;99.90;;;;;;5023643;28;20183;-50
2023/08/20 03:16:36;;;;;;;13.67;9.03;;;16.40;99.90;;;;;;5026611;28;20240;-53
2023/08/20 03:19:03;;;;;;;15.30;10.13;;;16.30;99.90;;;;;;5015696;28;20316;-55
2023/08/20 03:21:30;;;;;;;16.63;9.77;;;16.30;99.90;;;;;;5033101;28;20196;-49
2023/08/20 03:23:57;;;;;;;15.53;9.63;;;16.40;99.90;;;;;;5021871;28;20200;-49
2023/08/20 03:26:24;;;;;;;14.80;9.57;;;16.40;99.90;;;;;;5013668;28;20286;-51
2023/08/20 03:28:52;;;;;;;14.47;9.23;;;16.50;99.90;;;;;;5028260;28;20221;-56
2023/08/20 03:31:19;;;;;;;15.50;8.87;;;16.50;99.90;;;;;;5015616;28;20208;-57
2023/08/20 03:33:47;;;;;;;12.50;8.07;;;16.50;99.90;;;;;;5020240;28;20219;-54
2023/08/20 03:36:14;;;;;;;16.53;7.83;;;16.40;99.90;;;;;;5033339;28;20200;-56
2023/08/20 03:38:42;;;;;;;13.60;8.20;;;16.40;99.90;;;;;;5027453;28;20214;-50
2023/08/20 03:41:09;;;;;;;12.47;7.47;;;16.50;99.90;;;;;;5032264;28;20207;-50
2023/08/20 03:43:36;;;;;;;11.80;7.40;;;16.50;99.90;;;;;;4995329;28;20298;-50
2023/08/20 03:46:04;;;;;;;14.73;7.80;;;16.40;99.90;;;;;;5029866;28;20196;-59
2023/08/20 03:48:31;;;;;;;11.27;8.23;;;16.30;99.90;;;;;;5019086;28;20188;-55
2023/08/20 03:50:58;;;;;;;11.73;8.07;;;16.30;99.90;;;;;;5019096;28;20257;-56
2023/08/20 03:53:25;;;;;;;9.07;7.33;;;16.30;99.90;;;;;;5030257;28;20948;-53
2023/08/20 03:55:52;;;;;;;13.43;7.20;;;16.20;99.90;;;;;;5032962;28;20252;-51
2023/08/20 03:58:19;;;;;;;10.37;7.27;;;16.10;99.90;;;;;;5003967;28;20298;-51
2023/08/20 04:00:46;;;;;;;11.53;7.33;;;16.00;99.90;;;;;;5034071;28;20203;-51
2023/08/20 04:03:14;;;;;;;11.50;6.97;;;16.00;99.90;;;;;;5023874;28;21073;-57
2023/08/20 04:05:41;;;;;;;12.27;7.60;;;16.00;99.90;;;;;;5019955;28;20664;-50
2023/08/20 04:08:08;;;;;;;15.03;7.53;;;15.90;99.90;;;;;;5034636;28;20188;-58
2023/08/20 04:10:35;;;;;;;8.93;6.53;;;;;;;;;;5033440;28;20249;-48
2023/08/20 04:13:02;;;;;;;13.00;6.57;;;15.80;99.90;;;;;;5023027;28;20212;-57
2023/08/20 04:15:29;;;;;;;17.03;6.87;;;15.80;99.90;;;;;;5017818;28;20383;-50
2023/08/20 04:17:55;;;;;;;15.63;6.63;;;15.70;99.90;;;;;;5031673;28;20219;-57
2023/08/20 04:20:24;;;;;;;15.40;7.67;;;15.70;99.90;;;;;;5015160;28;20204;-50
2023/08/20 04:22:50;;;;;;;18.37;7.43;;;15.60;99.90;;;;;;5025297;28;20315;-50
2023/08/20 04:25:17;;;;;;;23.03;9.27;;;15.70;99.90;;;;;;5023869;28;20226;-57
2023/08/20 04:27:44;;;;;;;18.60;8.37;;;15.60;99.90;;;;;;5029082;28;20394;-56
2023/08/20 04:30:12;;;;;;;28.97;9.73;;;15.60;99.90;;;;;;5006458;28;20294;-51
2023/08/20 04:32:39;;;;;;;35.30;9.73;;;15.60;99.90;;;;;;5019567;28;20231;-53
2023/08/20 04:35:07;;;;;;;24.97;10.30;;;15.60;99.90;;;;;;5014736;28;21018;-57
2023/08/20 04:37:35;;;;;;;29.60;9.93;;;15.60;99.90;;;;;;5015863;28;20251;-56
2023/08/20 04:40:04;;;;;;;18.23;8.20;;;15.60;99.90;;;;;;5020269;28;20192;-57
2023/08/20 04:42:31;;;;;;;16.63;9.10;;;15.60;99.90;;;;;;5029581;28;20208;-57
2023/08/20 04:44:58;;;;;;;11.33;9.33;;;15.60;99.90;;;;;;5010413;28;20199;-54
2023/08/20 04:47:26;;;;;;;15.07;9.20;;;15.60;99.90;;;;;;5031496;28;20227;-57
2023/08/20 04:49:53;;;;;;;18.77;9.30;;;15.60;99.90;;;;;;5016471;28;20254;-55
2023/08/20 04:52:21;;;;;;;16.30;9.03;;;15.60;99.90;;;;;;5017566;28;20224;-57
2023/08/20 04:54:49;;;;;;;18.37;9.97;;;15.60;99.90;;;;;;5026250;28;20222;-51
2023/08/20 04:57:16;;;;;;;16.13;9.23;;;15.60;99.90;;;;;;5022733;28;20904;-57
2023/08/20 04:59:45;;;;;;;17.73;8.87;;;15.60;99.90;;;;;;5024944;28;20195;-51
2023/08/20 05:02:26;;;;;;;14.63;9.03;;;15.60;99.90;;;;;;5021437;28;20231;-55
2023/08/20 05:04:57;;;;;;;13.20;9.20;;;15.60;99.90;;;;;;5017753;28;20192;-51
2023/08/20 05:07:24;;;;;;;16.93;10.37;;;15.70;99.90;;;;;;5019358;28;20206;-57
2023/08/20 05:09:53;;;;;;;13.23;9.33;;;15.70;99.90;;;;;;5014581;28;20211;-53
2023/08/20 05:12:20;;;;;;;14.77;9.30;;;15.70;99.90;;;;;;5033823;28;20292;-57
2023/08/20 05:14:46;;;;;;;13.23;8.83;;;15.80;99.90;;;;;;5021717;28;20624;-52
2023/08/20 05:17:13;;;;;;;15.40;9.67;;;15.80;99.90;;;;;;5025091;28;20196;-53
2023/08/20 05:19:40;;;;;;;14.23;10.13;;;15.90;99.90;;;;;;5019135;28;20926;-50
2023/08/20 05:22:07;;;;;;;15.37;11.00;;;15.90;99.90;;;;;;5007951;28;20585;-54
2023/08/20 05:24:36;;;;;;;17.97;10.33;;;16.00;99.90;;;;;;5021600;28;20239;-56
2023/08/20 05:27:09;;;;;;;23.33;9.77;;;16.00;99.90;;;;;;5025798;28;20973;-57
2023/08/20 05:29:37;;;;;;;20.20;8.97;;;16.10;99.90;;;;;;5027055;28;20264;-57
2023/08/20 05:32:04;;;;;;;18.07;9.50;;;16.10;99.90;;;;;;5007614;28;20219;-58
2023/08/20 05:34:31;;;;;;;21.77;10.40;;;16.20;99.90;;;;;;5022890;28;20561;-57
2023/08/20 05:36:58;;;;;;;17.07;10.17;;;16.30;99.90;;;;;;5010108;28;20961;-55
2023/08/20 05:39:26;;;;;;;35.03;11.20;;;16.30;99.90;;;;;;5014259;28;20271;-57
2023/08/20 05:41:54;;;;;;;21.23;11.57;;;16.30;99.90;;;;;;5017854;28;20216;-55
2023/08/20 05:44:22;;;;;;;28.03;12.50;;;16.30;99.90;;;;;;5023779;28;20273;-56
2023/08/20 05:46:50;;;;;;;23.07;11.93;;;16.40;99.90;;;;;;5010884;28;20223;-53
2023/08/20 05:49:18;;;;;;;39.80;13.27;;;16.50;99.90;;;;;;5022733;28;20266;-55
2023/08/20 05:51:45;;;;;;;25.27;12.20;;;16.50;99.90;;;;;;5015340;28;20704;-52
2023/08/20 05:54:12;;;;;;;24.73;13.63;;;16.50;99.90;;;;;;5007939;28;20215;-56
2023/08/20 05:56:39;;;;;;;19.93;12.10;;;16.50;99.90;;;;;;5021416;28;20204;-53
2023/08/20 05:59:06;;;;;;;27.83;13.60;;;16.60;99.90;;;;;;5012411;28;20228;-55
2023/08/20 06:01:35;;;;;;;18.63;12.50;;;16.70;99.90;;;;;;5023884;28;20196;-62
2023/08/20 06:04:02;;;;;;;22.57;13.27;;;16.80;99.90;;;;;;4993536;28;20208;-57
2023/08/20 06:06:29;;;;;;;52.63;14.40;;;16.80;99.90;;;;;;5023270;28;20593;-52
2023/08/20 06:08:56;;;;;;;30.00;13.33;;;16.90;99.90;;;;;;5017492;28;20201;-57
2023/08/20 06:11:23;;;;;;;54.33;12.40;;;16.90;99.90;;;;;;5018400;28;20202;-53
2023/08/20 06:13:50;;;;;;;65.07;13.63;;;17.00;99.90;;;;;;5026685;28;20219;-53
2023/08/20 06:16:16;;;;;;;44.77;15.03;;;16.90;99.90;;;;;;5034292;28;20195;-57
2023/08/20 06:18:44;;;;;;;63.10;15.77;;;17.00;99.90;;;;;;5010347;28;20297;-52
2023/08/20 06:21:12;;;;;;;42.60;15.37;;;17.00;99.90;;;;;;5022208;28;20284;-57
2023/08/20 06:23:39;;;;;;;27.57;15.27;;;17.10;99.90;;;;;;5030976;28;20219;-53
2023/08/20 06:26:06;;;;;;;32.67;15.30;;;17.10;99.90;;;;;;5012020;28;20262;-57
2023/08/20 06:28:33;;;;;;;39.93;15.67;;;17.20;99.90;;;;;;5030115;28;20787;-56
2023/08/20 06:31:00;;;;;;;31.80;16.80;;;17.30;99.90;;;;;;5031135;28;20893;-57
2023/08/20 06:33:26;;;;;;;29.40;16.60;;;17.40;99.90;;;;;;5034484;28;20266;-57
2023/08/20 06:35:55;;;;;;;30.00;17.03;;;17.50;99.90;;;;;;5004028;28;20284;-52
2023/08/20 06:38:21;;;;;;;33.47;16.13;;;17.60;99.90;;;;;;5031313;28;20239;-55
2023/08/20 06:40:48;;;;;;;29.17;16.40;;;17.60;99.90;;;;;;5014509;28;20261;-54
2023/08/20 06:43:15;;;;;;;20.40;15.67;;;17.70;99.90;;;;;;5028181;28;20234;-55
2023/08/20 06:45:42;;;;;;;23.57;15.83;;;17.70;99.90;;;;;;5032258;28;20196;-52
2023/08/20 06:48:09;;;;;;;20.77;15.07;;;17.80;99.90;;;;;;5028530;28;20257;-57
2023/08/20 06:50:35;;;;;;;24.20;15.47;;;17.80;99.90;;;;;;5013794;28;20212;-53
2023/08/20 06:53:05;;;;;;;22.17;14.40;;;17.90;99.90;;;;;;5023521;28;20215;-58
2023/08/20 06:55:32;;;;;;;20.40;14.57;;;18.00;99.90;;;;;;5029250;28;20193;-57
2023/08/20 06:57:59;;;;;;;19.07;13.70;;;18.10;99.90;;;;;;5014871;28;20204;-58
2023/08/20 07:00:25;;;;;;;21.80;14.23;;;18.10;99.90;;;;;;5028144;28;20325;-58
2023/08/20 07:02:52;;;;;;;18.50;13.40;;;18.20;99.90;;;;;;5025263;28;20583;-53
2023/08/20 07:05:19;;;;;;;17.60;14.40;;;18.30;99.90;;;;;;5021457;28;20559;-58
2023/08/20 07:07:46;;;;;;;15.70;12.37;;;18.40;99.90;;;;;;5012741;28;20215;-53
2023/08/20 07:10:15;;;;;;;15.80;12.03;;;18.30;99.90;;;;;;5026856;28;20202;-58
2023/08/20 07:12:41;;;;;;;15.77;11.33;;;18.30;99.90;;;;;;5017495;28;20216;-53
2023/08/20 07:15:09;;;;;;;14.97;11.47;;;18.40;99.90;;;;;;5025941;28;20187;-55
2023/08/20 07:17:36;;;;;;;13.80;11.40;;;18.40;99.90;;;;;;5027570;28;20200;-56
2023/08/20 07:20:03;;;;;;;13.80;10.60;;;18.40;99.90;;;;;;5023809;28;20222;-57
2023/08/20 07:22:30;;;;;;;14.87;11.00;;;18.50;99.90;;;;;;5006123;28;20227;-55
2023/08/20 07:24:56;;;;;;;14.80;10.83;;;18.60;99.90;;;;;;5027826;28;20472;-56
2023/08/20 07:27:24;;;;;;;17.47;11.43;;;18.70;99.90;;;;;;5023609;28;20681;-58
2023/08/20 07:29:51;;;;;;;16.40;10.97;;;18.70;99.90;;;;;;5015456;28;20212;-57
2023/08/20 07:32:17;;;;;;;15.47;10.07;;;18.80;99.90;;;;;;5035746;28;20228;-54
2023/08/20 07:34:44;;;;;;;13.93;10.20;;;18.80;99.90;;;;;;5031039;28;20199;-57
2023/08/20 07:37:11;;;;;;;19.17;12.20;;;18.90;99.90;;;;;;5006895;28;20215;-57
2023/08/20 07:39:38;;;;;;;17.63;10.47;;;19.00;99.90;;;;;;5026002;28;20226;-52
2023/08/20 07:42:05;;;;;;;14.40;10.30;;;19.10;99.90;;;;;;5031239;28;20311;-54
2023/08/20 07:44:33;;;;;;;8.40;7.57;;;19.20;99.90;;;;;;5008853;28;20249;-54
2023/08/20 07:47:00;;;;;;;10.07;7.47;;;19.40;99.90;;;;;;5031482;28;20192;-51
2023/08/20 07:49:27;;;;;;;10.07;6.83;;;19.50;99.90;;;;;;5025609;28;20203;-53
2023/08/20 07:51:55;;;;;;;9.97;5.47;;;19.50;99.90;;;;;;5010497;28;20223;-53
2023/08/20 07:54:22;;;;;;;14.13;6.17;;;19.50;99.90;;;;;;5014791;28;20253;-56
2023/08/20 07:56:49;;;;;;;10.17;5.57;;;19.50;99.90;;;;;;5031123;28;20270;-54
2023/08/20 07:59:16;;;;;;;6.63;4.47;;;19.60;99.90;;;;;;5008920;28;20228;-59
2023/08/20 08:01:44;;;;;;;4.97;3.97;;;19.60;99.90;;;;;;5020840;28;20280;-48
2023/08/20 08:04:12;;;;;;;7.00;4.43;;;19.70;99.90;;;;;;5025552;28;20223;-57
2023/08/20 08:06:38;;;;;;;9.73;5.37;;;19.80;99.90;;;;;;5022939;28;20849;-55
2023/08/20 08:09:22;;;;;;;10.30;5.53;;;19.90;99.90;;;;;;5010658;28;20207;-56
2023/08/20 08:11:50;;;;;;;6.37;4.63;;;20.00;99.90;;;;;;5022112;28;20199;-55
2023/08/20 08:14:16;;;;;;;6.83;4.13;;;20.00;99.90;;;;;;5018653;28;21203;-59
2023/08/20 08:16:45;;;;;;;8.13;4.43;;;20.10;99.90;;;;;;5021525;28;20215;-55
2023/08/20 08:19:12;;;;;;;5.70;3.70;;;20.10;99.90;;;;;;5023295;28;20258;-59
2023/08/20 08:21:39;;;;;;;6.70;4.70;;;20.30;99.90;;;;;;5028138;28;20191;-54
2023/08/20 08:24:06;;;;;;;6.13;5.13;;;20.30;99.90;;;;;;5014452;28;20219;-59
2023/08/20 08:26:35;;;;;;;6.40;4.37;;;20.30;99.90;;;;;;5020524;28;20289;-52
2023/08/20 08:29:02;;;;;;;5.40;4.10;;;20.20;99.90;;;;;;5031151;28;20199;-57
2023/08/20 08:31:29;;;;;;;5.78;4.38;;;20.40;99.90;;;;;;5013323;28;20368;-55
2023/08/20 08:33:57;;;;;;;5.38;4.68;;;20.40;99.90;;;;;;5029395;28;20246;-55
2023/08/20 08:36:24;;;;;;;7.32;5.18;;;20.50;99.90;;;;;;5033361;28;20560;-55
2023/08/20 08:38:51;;;;;;;5.87;5.27;;;20.50;99.90;;;;;;5024744;28;20682;-52
2023/08/20 08:41:21;;;;;;;8.80;5.40;;;20.50;99.90;;;;;;5009537;28;20223;-57
2023/08/20 08:43:49;;;;;;;7.63;5.80;;;20.60;99.90;;;;;;5025443;28;20216;-54
2023/08/20 08:46:17;;;;;;;8.60;6.65;;;20.50;99.90;;;;;;5014988;28;20396;-57
2023/08/20 08:48:44;;;;;;;8.32;6.25;;;20.70;99.90;;;;;;5024254;28;20274;-53
2023/08/20 08:51:14;;;;;;;7.75;5.72;;;20.80;99.90;;;;;;5022464;28;20204;-58
2023/08/20 08:53:43;;;;;;;8.30;6.57;;;20.90;99.90;;;;;;5031213;28;20204;-52
2023/08/20 08:56:10;;;;;;;7.13;6.25;;;20.90;99.90;;;;;;5014355;28;20254;-56
2023/08/20 08:58:37;;;;;;;10.48;6.22;;;20.80;99.90;;;;;;5022010;28;20386;-50
2023/08/20 09:01:04;;;;;;;11.40;6.88;;;20.80;99.90;;;;;;5022960;28;20548;-55
2023/08/20 09:03:31;;;;;;;8.07;6.13;;;20.90;99.90;;;;;;5016491;28;20223;-54
2023/08/20 09:06:00;;;;;;;7.60;5.15;;;21.00;99.90;;;;;;5030510;28;20711;-55
2023/08/20 09:08:30;;;;;;;5.50;4.60;;;21.00;99.90;;;;;;5023161;28;20263;-56
2023/08/20 09:10:58;;;;;;;7.25;4.05;;;21.10;99.90;;;;;;5028747;28;20219;-52
2023/08/20 09:13:25;;;;;;;9.40;4.60;;;21.20;99.90;;;;;;5005139;28;20301;-55
2023/08/20 09:15:53;;;;;;;4.70;3.72;;;21.20;99.90;;;;;;5025646;28;20999;-55
2023/08/20 09:18:20;;;;;;;4.40;3.65;;;21.20;99.90;;;;;;5010797;28;20215;-58
2023/08/20 09:20:49;;;;;;;8.75;4.10;;;21.30;99.90;;;;;;5022813;28;20245;-49
2023/08/20 09:23:16;;;;;;;7.45;3.67;;;21.30;99.90;;;;;;5021885;28;20223;-59
2023/08/20 09:25:45;;;;;;;5.25;3.40;;;21.50;99.90;;;;;;5018587;28;20192;-55
2023/08/20 09:28:12;;;;;;;5.72;3.22;;;21.50;99.90;;;;;;5005264;28;20554;-55
2023/08/20 09:30:41;;;;;;;4.45;2.60;;;21.60;99.90;;;;;;5026847;28;20218;-56
2023/08/20 09:33:11;;;;;;;3.33;2.45;;;21.70;99.90;;;;;;5022227;28;20286;-52
2023/08/20 09:35:38;;;;;;;3.30;2.83;;;21.70;99.90;;;;;;5016323;28;20620;-55
2023/08/20 09:38:05;;;;;;;6.53;3.00;;;21.80;99.90;;;;;;5027624;28;20245;-50
2023/08/20 09:40:32;;;;;;;5.72;2.22;;;21.90;99.90;;;;;;5023669;28;20276;-55
2023/08/20 09:43:02;;;;;;;3.13;2.47;;;21.90;99.90;;;;;;5002461;28;20767;-52
2023/08/20 09:45:29;;;;;;;7.57;2.60;;;22.00;99.90;;;;;;5024981;28;20788;-52
2023/08/20 09:47:58;;;;;;;6.22;2.47;;;22.00;99.90;;;;;;5013827;28;20931;-52
2023/08/20 09:50:28;;;;;;;6.53;2.13;;;22.10;99.90;;;;;;5018054;28;20188;-50
2023/08/20 09:52:59;;;;;;;3.92;1.92;;;22.10;99.90;;;;;;5022282;28;20204;-48
2023/08/20 09:55:33;;;;;;;4.13;2.40;;;22.10;99.90;;;;;;5027898;28;20196;-50
2023/08/20 09:58:03;;;;;;;8.00;2.05;;;22.10;99.90;;;;;;5004444;28;20219;-56
2023/08/20 10:00:31;;;;;;;4.60;1.73;;;22.20;99.90;;;;;;5017596;28;20215;-45
2023/08/20 10:02:58;;;;;;;4.60;1.60;;;22.20;99.90;;;;;;5026964;28;20904;-50
2023/08/20 10:05:25;;;;;;;3.75;1.63;;;22.20;99.90;;;;;;5015399;28;20637;-49
2023/08/20 10:07:55;;;;;;;2.65;2.10;;;22.20;99.90;;;;;;5025334;28;20195;-44
2023/08/20 10:10:22;;;;;;;7.00;2.10;;;22.20;99.90;;;;;;5028999;28;20238;-47
2023/08/20 10:12:49;;;;;;;6.55;2.15;;;22.30;99.90;;;;;;5025553;28;20260;-56
2023/08/20 10:15:17;;;;;;;3.25;1.88;;;22.40;99.90;;;;;;5006445;28;20208;-45
2023/08/20 10:17:46;;;;;;;5.40;2.25;;;22.50;99.90;;;;;;5028154;28;20609;-56
2023/08/20 10:20:15;;;;;;;5.93;1.92;;;22.60;99.90;;;;;;5021573;28;20239;-48
2023/08/20 10:22:43;;;;;;;3.80;2.35;;;22.80;99.90;;;;;;5026706;28;20226;-56
2023/08/20 10:25:11;;;;;;;4.15;2.53;;;22.80;99.90;;;;;;5030229;28;20211;-50
2023/08/20 10:27:42;;;;;;;4.13;2.30;;;22.90;99.90;;;;;;5028036;28;20195;-56
2023/08/20 10:30:16;;;;;;;4.93;2.20;;;22.90;99.90;;;;;;5009401;28;20207;-53
2023/08/20 10:32:48;;;;;;;3.55;1.90;;;23.00;99.90;;;;;;5022145;28;20220;-55
2023/08/20 10:35:17;;;;;;;3.63;3.13;;;23.10;99.90;;;;;;5018980;28;20200;-52
2023/08/20 10:38:02;;;;;;;4.00;2.13;;;23.20;99.90;;;;;;5021644;28;20204;-56
2023/08/20 10:40:48;;;;;;;6.00;2.72;;;23.20;99.90;;;;;;5029309;28;20643;-52
2023/08/20 10:43:29;;;;;;;3.05;2.10;;;23.20;99.90;;;;;;5028529;28;20250;-48
2023/08/20 10:46:06;;;;;;;6.35;2.08;;;23.30;99.90;;;;;;4998764;28;21836;-47
2023/08/20 10:48:35;;;;;;;5.88;2.40;;;23.40;99.90;;;;;;5015541;28;20192;-54
2023/08/20 10:51:10;;;;;;;4.78;2.30;;;23.60;99.90;;;;;;5003932;28;20247;-56
2023/08/20 10:53:38;;;;;;;6.70;2.22;;;23.60;99.90;;;;;;5020582;28;20314;-55
2023/08/20 10:56:10;;;;;;;4.32;1.83;;;23.50;99.90;;;;;;5024261;28;20327;-47
2023/08/20 10:58:38;;;;;;;3.22;1.80;;;23.40;99.90;;;;;;5023105;28;20200;-55
2023/08/20 11:01:30;;;;;;;5.28;1.92;;;23.40;99.90;;;;;;5009236;28;20234;-47
2023/08/20 11:04:00;;;;;;;8.80;2.25;;;23.50;99.90;;;;;;5011580;28;20236;-46
2023/08/20 11:06:33;;;;;;;6.88;2.45;;;23.70;99.90;;;;;;5018054;28;20285;-51
2023/08/20 11:09:00;;;;;;;2.83;1.85;;;23.80;99.90;;;;;;5025803;28;20196;-48
2023/08/20 11:11:27;;;;;;;3.92;2.10;;;23.80;99.90;;;;;;5030142;28;20193;-48
2023/08/20 11:13:53;;;;;;;4.18;1.95;;;23.90;99.90;;;;;;5029402;28;20487;-47
2023/08/20 11:16:19;;;;;;;4.60;2.10;;;23.80;99.90;;;;;;5031251;28;20203;-53
2023/08/20 11:18:46;;;;;;;1.75;1.42;;;23.90;99.90;;;;;;5006744;28;20204;-57
2023/08/20 11:21:14;;;;;;;4.15;2.00;;;23.90;99.90;;;;;;5028970;28;20294;-46
2023/08/20 11:23:43;;;;;;;3.53;1.65;;;23.80;99.90;;;;;;5019744;28;20219;-58
2023/08/20 11:26:09;;;;;;;3.60;1.90;;;23.70;99.90;;;;;;5028597;28;20301;-56
2023/08/20 11:28:36;;;;;;;5.70;1.83;;;23.70;99.90;;;;;;5030749;28;20242;-51
2023/08/20 11:31:03;;;;;;;4.65;2.30;;;23.80;99.90;;;;;;5026661;28;20952;-57
2023/08/20 11:33:30;;;;;;;4.85;1.85;;;23.90;99.90;;;;;;5006525;28;20280;-57
2023/08/20 11:35:57;;;;;;;1.92;1.75;;;24.10;99.90;;;;;;5029527;28;20262;-56
2023/08/20 11:38:26;;;;;;;6.80;1.90;;;24.20;99.90;;;;;;5023010;28;20274;-57
2023/08/20 11:40:53;;;;;;;4.38;1.50;;;24.20;99.90;;;;;;5028790;28;20223;-56
2023/08/20 11:43:20;;;;;;;7.85;2.35;;;24.20;99.90;;;;;;5030533;28;20758;-57
2023/08/20 11:45:48;;;;;;;3.10;2.00;;;24.30;99.90;;;;;;5029628;28;20874;-53
2023/08/20 11:48:15;;;;;;;5.75;1.83;;;24.50;99.90;;;;;;5010533;28;20203;-53
2023/08/20 11:50:42;;;;;;;3.67;1.60;;;24.50;99.90;;;;;;5029117;28;20591;-49
2023/08/20 11:53:10;;;;;;;3.40;1.60;;;24.50;99.90;;;;;;5016834;28;20220;-53
2023/08/20 11:55:41;;;;;;;3.38;1.70;;;24.60;99.90;;;;;;5026885;28;20279;-48
2023/08/20 11:58:11;;;;;;;2.83;1.77;;;24.60;99.90;;;;;;5031292;28;20424;-57
2023/08/20 12:00:38;;;;;;;7.55;1.90;;;24.50;99.90;;;;;;5021350;28;20224;-48
2023/08/20 12:03:05;;;;;;;4.78;1.67;;;24.50;99.90;;;;;;5017257;28;20224;-57
2023/08/20 12:05:32;;;;;;;5.28;2.05;;;24.50;99.90;;;;;;4997194;28;21657;-56
2023/08/20 12:08:00;;;;;;;3.17;1.73;;;24.50;99.90;;;;;;5009330;28;20200;-56
2023/08/20 12:10:28;;;;;;;3.30;1.52;;;24.50;99.90;;;;;;5012693;28;20188;-54
2023/08/20 12:12:57;;;;;;;6.35;2.55;;;24.50;99.90;;;;;;5025604;28;20310;-57
2023/08/20 12:15:25;;;;;;;2.92;1.55;;;24.50;99.90;;;;;;5013496;28;20887;-51
2023/08/20 12:17:59;;;;;;;3.97;1.90;;;24.70;99.90;;;;;;5025875;28;20291;-54
2023/08/20 12:20:28;;;;;;;1.77;1.27;;;24.80;99.90;;;;;;5000229;28;20332;-53
2023/08/20 12:22:55;;;;;;;2.50;1.52;;;24.80;99.90;;;;;;5013794;28;20228;-55
2023/08/20 12:25:22;;;;;;;2.47;1.50;;;24.70;99.90;;;;;;5015543;28;20211;-46
2023/08/20 12:27:49;;;;;;;5.15;1.80;;;24.60;99.90;;;;;;5027441;28;20195;-58
2023/08/20 12:30:18;;;;;;;5.32;2.10;;;24.70;99.90;;;;;;5022197;28;20249;-52
2023/08/20 12:32:45;;;;;;;3.08;1.83;;;24.70;99.90;;;;;;5021213;28;20216;-55
2023/08/20 12:35:11;;;;;;;3.40;1.60;;;24.70;99.90;;;;;;5010026;28;20207;-48
2023/08/20 12:37:38;;;;;;;3.55;1.80;;;24.70;99.90;;;;;;5022441;28;20209;-53
2023/08/20 12:40:10;;;;;;;3.25;1.65;;;24.80;99.90;;;;;;5023778;28;20308;-57
2023/08/20 12:42:37;;;;;;;3.10;1.90;;;24.90;99.90;;;;;;5034345;28;20806;-57
2023/08/20 12:45:05;;;;;;;3.22;1.50;;;24.90;99.90;;;;;;5032019;28;20899;-48
2023/08/20 12:47:34;;;;;;;3.45;1.75;;;25.00;99.90;;;;;;5016510;28;20961;-53
2023/08/20 12:50:00;;;;;;;3.50;1.98;;;24.90;99.90;;;;;;5009335;28;20717;-55